Decoded Metar for LFLU (VALENCE in FRANCE) (IATA:VAF) | Meteo·Mobile Aviation Weather
aviador You're here:

LFLU Decoded Metar

VALENCE in FRANCE
Report Time2018-08-21 07:30:00
UTC Time2018-08-21 07:51:17
Flight Rules vfr VFR
Wind010° at 11 kt
W.Decomp.*RWY 01: 11.0 kt HW -0 kt LCW
W.Rank010° ranks 2
Current wind is below 010° avg. (12.0)
Visibility9999 m
Phenomena:N/A
Clouds:N/A
Expected CloudBase > 2,800 ft AGL from Temp-Dew spread
CeilingNone
Temp24°C
Dew Point17°C (65% RH)
AAT22.4°C
QNH1018 hPa
Raw Report
METAR LFLU 210730Z AUTO 01011KT CAVOK 24/17 Q1018=

Extra information for LFLU:More info

Metar Taf Metar & Taf Last 4 Metars F.Rules Stats Wind Profile Meteogram Temp Stats Airport Information Weather charts Add Link Nearby VenuesMetar ALERT Operation Metar Decoded Social comments